MSC Lisbon — A8LL9 — position and weather

sailwx.info

Track history (hours):
 
Tides and Currents Weather Stations Pressure Air Temp Water Temp Dewpoint Dewpoint Depression Visibility Wind Speed Wind Dir Waves Ship Positions

MSC Lisbon

Last reported at 2014-Aug-21 13:33 UTC. Time now 2014-Aug-29 05:37 UTC.
Position N 30°34' E 122°51'.

Length 336.7 m; beam 45.6 m; draft 15.3 m.

Type: Ship (hazmat cat A). MMSI: 636091276.

Date/timePositionNaut miles runAvg speedWind from/ knotsBaromVisibWave heightAir tempDewpointWater temp
2014-Aug-21 13:33N 30°34' E 122°51'1818.5
2014-Aug-21 12:33N 30°33' E 122°29'1111.2
2014-Aug-21 11:33N 30°33' E 122°16'1211.7
2014-Aug-21 10:33N 30°37' E 122°03'0 0.3
2014-Aug-21 09:17N 30°38' E 122°03'0 0.0
2014-Aug-21 06:23N 30°38' E 122°03'0 0.0
2014-Aug-21 04:11N 30°38' E 122°03'0 0.1
2014-Aug-20 20:33N 30°38' E 122°03'7 7.4
2014-Aug-20 19:33N 30°34' E 122°10'9 9.2
2014-Aug-20 18:34N 30°33' E 122°21'9 8.7
2014-Aug-20 17:33N 30°32' E 122°31'1212.2
2014-Aug-20 16:33N 30°29' E 122°45'1414.2
2014-Aug-20 15:33N 30°20' E 122°57'1414.4
2014-Aug-20 14:33N 30°08' E 123°07'1814.8
2014-Aug-20 13:22N 29°54' E 122°56'1516.7
2014-Aug-20 12:26N 29°44' E 122°42'1315.1
2014-Aug-20 11:33N 29°41' E 122°27'1413.5
2014-Aug-20 10:33N 29°49' E 122°14'1111.3
2014-Aug-20 09:33N 29°54' E 122°03'1 1.1
2014-Aug-20 08:29N 29°54' E 122°02'0 0.0
2014-Aug-20 07:28N 29°54' E 122°02'0 0.0
2014-Aug-20 06:10N 29°54' E 122°02'0 0.0
2014-Aug-20 05:28N 29°54' E 122°02'0 0.0
2014-Aug-20 04:28N 29°54' E 122°02'0 0.0
2014-Aug-20 03:28N 29°54' E 122°02'0 0.1
2014-Aug-20 02:28N 29°54' E 122°02'0 0.0
2014-Aug-20 01:22N 29°54' E 122°02'0 0.1
2014-Aug-20 00:28N 29°54' E 122°02'0 0.1
2014-Aug-19 23:28N 29°54' E 122°02'0 0.0
2014-Aug-19 22:28N 29°54' E 122°02'0 0.0
2014-Aug-19 21:28N 29°54' E 122°02'0 0.0
2014-Aug-19 20:28N 29°54' E 122°02'0 0.0
2014-Aug-19 19:10N 29°54' E 122°02'0 0.0
2014-Aug-19 18:28N 29°54' E 122°02'0 0.0
2014-Aug-19 17:22N 29°54' E 122°02'0 0.0
2014-Aug-19 16:28N 29°54' E 122°02'0 0.0
2014-Aug-19 15:28N 29°54' E 122°02'0 0.0
2014-Aug-19 14:28N 29°54' E 122°02'0 0.0
2014-Aug-19 13:28N 29°54' E 122°02'0 0.0
2014-Aug-19 12:28N 29°54' E 122°02'0 0.0
2014-Aug-19 11:28N 29°54' E 122°02'0 0.0
2014-Aug-19 10:16N 29°54' E 122°02'0 0.0
2014-Aug-19 09:29N 29°54' E 122°02'0 0.5
2014-Aug-19 08:33N 29°54' E 122°02'1510.2
2014-Aug-19 07:05N 29°46' E 122°17'611.6
2014-Aug-19 06:33N 29°43' E 122°23'1615.6
2014-Aug-19 05:31N 29°30' E 122°35'1718.1
2014-Aug-19 04:33N 29°13' E 122°35'27318.1
2014-Aug-18 13:31N 25°15' E 120°06'10920.2
2014-Aug-18 08:09N 23°57' E 118°43'1320.8
2014-Aug-18 07:33N 23°49' E 118°32'2120.5
2014-Aug-18 06:32N 23°37' E 118°14'4820.5
2014-Aug-18 04:12N 23°06' E 117°34'1519.9
2014-Aug-18 03:26N 22°57' E 117°21'1818.7
2014-Aug-18 02:29N 22°48' E 117°04'2221.7
2014-Aug-18 01:29N 22°37' E 116°44'14618.4
2014-Aug-17 17:31N 22°20' E 114°07'0 0.0
2014-Aug-17 14:12N 22°20' E 114°07'0 0.0
2014-Aug-17 11:24N 22°20' E 114°07'0 0.0
2014-Aug-17 10:24N 22°20' E 114°07'0 0.0
2014-Aug-17 06:11N 22°20' E 114°07'0 0.0
2014-Aug-16 21:05N 22°20' E 114°07'0 0.0
2014-Aug-16 18:17N 22°20' E 114°07'1 0.8
2014-Aug-16 17:07N 22°20' E 114°07'12 7.8
2014-Aug-16 15:32N 22°23' E 113°54'5 5.2
2014-Aug-16 14:32N 22°28' E 113°53'0 0.1
2014-Aug-16 13:26N 22°28' E 113°53'0 0.0
2014-Aug-16 12:17N 22°28' E 113°53'0 0.0
2014-Aug-15 23:08N 22°28' E 113°53'0 0.0
2014-Aug-15 22:26N 22°28' E 113°53'0 0.0
2014-Aug-15 20:32N 22°28' E 113°53'0 0.0
2014-Aug-15 10:28N 22°28' E 113°53'0 0.0
2014-Aug-15 09:28N 22°28' E 113°53'0 0.0
2014-Aug-15 08:22N 22°28' E 113°53'0 0.0
2014-Aug-15 07:28N 22°28' E 113°53'0 0.0
2014-Aug-15 06:33N 22°28' E 113°53'5 5.5
2014-Aug-15 05:33N 22°23' E 113°54'17315.5
2014-Aug-14 18:25N 22°50' E 116°59'1820.4
2014-Aug-14 17:31N 22°55' E 117°18'4019.2
2014-Aug-14 15:25N 23°25' E 117°47'1719.2
2014-Aug-14 14:33N 23°29' E 118°05'1919.3
2014-Aug-14 13:33N 23°39' E 118°23'2419.6
2014-Aug-14 12:20N 23°56' E 118°42'3620.1
2014-Aug-14 10:33N 24°18' E 119°13'2820.8
2014-Aug-14 09:12N 24°39' E 119°33'38819.3
2014-Aug-13 13:07N 30°17' E 123°07'1016.3
2014-Aug-13 12:30N 30°20' E 122°56'1920.1
2014-Aug-13 11:33N 30°31' E 122°38'1817.8
2014-Aug-13 10:33N 30°33' E 122°18'14 0.8
2014-Aug-12 18:19N 30°38' E 122°03'4 5.4
2014-Aug-12 17:33N 30°36' E 122°07'1211.6
2014-Aug-12 16:34N 30°33' E 122°20'7 7.2
2014-Aug-12 15:33N 30°32' E 122°28'1514.6
2014-Aug-12 14:33N 30°28' E 122°44'5 4.7
2014-Aug-12 13:33N 30°24' E 122°44'0 0.2
2014-Aug-12 12:31N 30°23' E 122°44'0 0.1
2014-Aug-12 11:31N 30°23' E 122°44'55205615.5
2014-Aug-12 10:32N 51°20' E 004°16'55204736.3
2014-Aug-12 09:22N 30°23' E 122°44'0 0.0
2014-Aug-12 08:30N 30°23' E 122°44'0 0.1
2014-Aug-12 07:24N 30°23' E 122°44'0 0.0
2014-Aug-12 06:30N 30°23' E 122°44'0 0.1
2014-Aug-12 05:18N 30°24' E 122°44'0 0.2
2014-Aug-12 04:30N 30°24' E 122°44'0 0.1
2014-Aug-12 03:30N 30°24' E 122°44'0 0.1
2014-Aug-12 02:30N 30°24' E 122°44'0 0.1
2014-Aug-12 01:30N 30°24' E 122°44'0 0.2
2014-Aug-12 00:30N 30°23' E 122°44'0 0.1
2014-Aug-11 23:30N 30°23' E 122°44'0 0.1
2014-Aug-11 22:30N 30°23' E 122°44'0 0.0
2014-Aug-11 21:18N 30°23' E 122°44'0 0.1
2014-Aug-11 20:18N 30°23' E 122°44'0 0.0
2014-Aug-11 19:30N 30°23' E 122°44'0 0.1
2014-Aug-11 18:24N 30°24' E 122°44'0 0.1
2014-Aug-11 17:30N 30°24' E 122°44'0 0.1
2014-Aug-11 16:30N 30°24' E 122°44'0 0.1
2014-Aug-11 15:30N 30°24' E 122°44'0 0.1
2014-Aug-11 14:24N 30°24' E 122°44'  
Track history (hours):
 
Tides and Currents Weather Stations Pressure Air Temp Water Temp Dewpoint Dewpoint Depression Visibility Wind Speed Wind Dir Waves Ship Positions

MSC Lisbon

Last reported at 2014-Aug-21 13:33 UTC. Time now 2014-Aug-29 05:37 UTC.
Position N 30°34' E 122°51'.

Length 336.7 m; beam 45.6 m; draft 15.3 m.

Type: Ship (hazmat cat A). MMSI: 636091276.

Date/timePositionNaut miles runAvg speedWind from/ knotsBaromVisibWave heightAir tempDewpointWater temp
2014-Aug-21 13:33N 30°34' E 122°51'1818.5
2014-Aug-21 12:33N 30°33' E 122°29'1111.2
2014-Aug-21 11:33N 30°33' E 122°16'1211.7
2014-Aug-21 10:33N 30°37' E 122°03'0 0.3
2014-Aug-21 09:17N 30°38' E 122°03'0 0.0
2014-Aug-21 06:23N 30°38' E 122°03'0 0.0
2014-Aug-21 04:11N 30°38' E 122°03'0 0.1
2014-Aug-20 20:33N 30°38' E 122°03'7 7.4
2014-Aug-20 19:33N 30°34' E 122°10'9 9.2
2014-Aug-20 18:34N 30°33' E 122°21'9 8.7
2014-Aug-20 17:33N 30°32' E 122°31'1212.2
2014-Aug-20 16:33N 30°29' E 122°45'1414.2
2014-Aug-20 15:33N 30°20' E 122°57'1414.4
2014-Aug-20 14:33N 30°08' E 123°07'1814.8
2014-Aug-20 13:22N 29°54' E 122°56'1516.7
2014-Aug-20 12:26N 29°44' E 122°42'1315.1
2014-Aug-20 11:33N 29°41' E 122°27'1413.5
2014-Aug-20 10:33N 29°49' E 122°14'1111.3
2014-Aug-20 09:33N 29°54' E 122°03'1 1.1
2014-Aug-20 08:29N 29°54' E 122°02'0 0.0
2014-Aug-20 07:28N 29°54' E 122°02'0 0.0
2014-Aug-20 06:10N 29°54' E 122°02'0 0.0
2014-Aug-20 05:28N 29°54' E 122°02'0 0.0
2014-Aug-20 04:28N 29°54' E 122°02'0 0.0
2014-Aug-20 03:28N 29°54' E 122°02'0 0.1
2014-Aug-20 02:28N 29°54' E 122°02'0 0.0
2014-Aug-20 01:22N 29°54' E 122°02'0 0.1
2014-Aug-20 00:28N 29°54' E 122°02'0 0.1
2014-Aug-19 23:28N 29°54' E 122°02'0 0.0
2014-Aug-19 22:28N 29°54' E 122°02'0 0.0
2014-Aug-19 21:28N 29°54' E 122°02'0 0.0
2014-Aug-19 20:28N 29°54' E 122°02'0 0.0
2014-Aug-19 19:10N 29°54' E 122°02'0 0.0
2014-Aug-19 18:28N 29°54' E 122°02'0 0.0
2014-Aug-19 17:22N 29°54' E 122°02'0 0.0
2014-Aug-19 16:28N 29°54' E 122°02'0 0.0
2014-Aug-19 15:28N 29°54' E 122°02'0 0.0
2014-Aug-19 14:28N 29°54' E 122°02'0 0.0
2014-Aug-19 13:28N 29°54' E 122°02'0 0.0
2014-Aug-19 12:28N 29°54' E 122°02'0 0.0
2014-Aug-19 11:28N 29°54' E 122°02'0 0.0
2014-Aug-19 10:16N 29°54' E 122°02'0 0.0
2014-Aug-19 09:29N 29°54' E 122°02'0 0.5
2014-Aug-19 08:33N 29°54' E 122°02'1510.2
2014-Aug-19 07:05N 29°46' E 122°17'611.6
2014-Aug-19 06:33N 29°43' E 122°23'1615.6
2014-Aug-19 05:31N 29°30' E 122°35'1718.1
2014-Aug-19 04:33N 29°13' E 122°35'27318.1
2014-Aug-18 13:31N 25°15' E 120°06'10920.2
2014-Aug-18 08:09N 23°57' E 118°43'1320.8
2014-Aug-18 07:33N 23°49' E 118°32'2120.5
2014-Aug-18 06:32N 23°37' E 118°14'4820.5
2014-Aug-18 04:12N 23°06' E 117°34'1519.9
2014-Aug-18 03:26N 22°57' E 117°21'1818.7
2014-Aug-18 02:29N 22°48' E 117°04'2221.7
2014-Aug-18 01:29N 22°37' E 116°44'14618.4
2014-Aug-17 17:31N 22°20' E 114°07'0 0.0
2014-Aug-17 14:12N 22°20' E 114°07'0 0.0
2014-Aug-17 11:24N 22°20' E 114°07'0 0.0
2014-Aug-17 10:24N 22°20' E 114°07'0 0.0
2014-Aug-17 06:11N 22°20' E 114°07'0 0.0
2014-Aug-16 21:05N 22°20' E 114°07'0 0.0
2014-Aug-16 18:17N 22°20' E 114°07'1 0.8
2014-Aug-16 17:07N 22°20' E 114°07'12 7.8
2014-Aug-16 15:32N 22°23' E 113°54'5 5.2
2014-Aug-16 14:32N 22°28' E 113°53'0 0.1
2014-Aug-16 13:26N 22°28' E 113°53'0 0.0
2014-Aug-16 12:17N 22°28' E 113°53'0 0.0
2014-Aug-15 23:08N 22°28' E 113°53'0 0.0
2014-Aug-15 22:26N 22°28' E 113°53'0 0.0
2014-Aug-15 20:32N 22°28' E 113°53'0 0.0
2014-Aug-15 10:28N 22°28' E 113°53'0 0.0
2014-Aug-15 09:28N 22°28' E 113°53'0 0.0
2014-Aug-15 08:22N 22°28' E 113°53'0 0.0
2014-Aug-15 07:28N 22°28' E 113°53'0 0.0
2014-Aug-15 06:33N 22°28' E 113°53'5 5.5
2014-Aug-15 05:33N 22°23' E 113°54'17315.5
2014-Aug-14 18:25N 22°50' E 116°59'1820.4
2014-Aug-14 17:31N 22°55' E 117°18'4019.2
2014-Aug-14 15:25N 23°25' E 117°47'1719.2
2014-Aug-14 14:33N 23°29' E 118°05'1919.3
2014-Aug-14 13:33N 23°39' E 118°23'2419.6
2014-Aug-14 12:20N 23°56' E 118°42'3620.1
2014-Aug-14 10:33N 24°18' E 119°13'2820.8
2014-Aug-14 09:12N 24°39' E 119°33'38819.3
2014-Aug-13 13:07N 30°17' E 123°07'1016.3
2014-Aug-13 12:30N 30°20' E 122°56'1920.1
2014-Aug-13 11:33N 30°31' E 122°38'1817.8
2014-Aug-13 10:33N 30°33' E 122°18'14 0.8
2014-Aug-12 18:19N 30°38' E 122°03'4 5.4
2014-Aug-12 17:33N 30°36' E 122°07'1211.6
2014-Aug-12 16:34N 30°33' E 122°20'7 7.2
2014-Aug-12 15:33N 30°32' E 122°28'1514.6
2014-Aug-12 14:33N 30°28' E 122°44'5 4.7
2014-Aug-12 13:33N 30°24' E 122°44'0 0.2
2014-Aug-12 12:31N 30°23' E 122°44'0 0.1
2014-Aug-12 11:31N 30°23' E 122°44'55205615.5
2014-Aug-12 10:32N 51°20' E 004°16'55204736.3
2014-Aug-12 09:22N 30°23' E 122°44'0 0.0
2014-Aug-12 08:30N 30°23' E 122°44'0 0.1
2014-Aug-12 07:24N 30°23' E 122°44'0 0.0
2014-Aug-12 06:30N 30°23' E 122°44'0 0.1
2014-Aug-12 05:18N 30°24' E 122°44'0 0.2
2014-Aug-12 04:30N 30°24' E 122°44'0 0.1
2014-Aug-12 03:30N 30°24' E 122°44'0 0.1
2014-Aug-12 02:30N 30°24' E 122°44'0 0.1
2014-Aug-12 01:30N 30°24' E 122°44'0 0.2
2014-Aug-12 00:30N 30°23' E 122°44'0 0.1
2014-Aug-11 23:30N 30°23' E 122°44'0 0.1
2014-Aug-11 22:30N 30°23' E 122°44'0 0.0
2014-Aug-11 21:18N 30°23' E 122°44'0 0.1
2014-Aug-11 20:18N 30°23' E 122°44'0 0.0
2014-Aug-11 19:30N 30°23' E 122°44'0 0.1
2014-Aug-11 18:24N 30°24' E 122°44'0 0.1
2014-Aug-11 17:30N 30°24' E 122°44'0 0.1
2014-Aug-11 16:30N 30°24' E 122°44'0 0.1
2014-Aug-11 15:30N 30°24' E 122°44'0 0.1
2014-Aug-11 14:24N 30°24' E 122°44'  

Dump ship's entire track history